Airfield :
LOGIN :

Register | Disclaimer

   EN    FR    IT 

 










Legend :    VFR   Marginal VFR   IFR   Intensive IFR   Very Intensive IFR
Visi :
Ceiling :
>= 8 km
>= 3000ft
5 to 8 km
1000 to 3000 ft
1500m to 5 km
500 to 1000 ft
800 to 1500m
200 to 500 ft
< 800m
< 200 ft
Symbols :   Thunderstorms  Fog  Heavy snow  Heavy precipitations  Wind > 20 kt
SIGMETs :     Misc.  Thunderstorms  Icing  Turbulence  Mountain Waves  Volcanic Ashes






- Airport Elevation : 326 ft
- IATA code : LCG


LECO - A Coruna

CURRENT METAR :
  • 161100Z VRB06KT 9999 SCT029 SCT045 21/15 Q1021 NOSIG

EXPIRED METARs :
  • 161030Z 01005KT 320V060 9999 FEW025 BKN031 19/14 Q1021 NOSIG
  • 161000Z 03004KT 300V110 9999 SCT025 BKN031 20/14 Q1021 NOSIG
  • 160930Z 34006KT 290V030 9999 SCT024 BKN036 18/14 Q1021 NOSIG
  • 160900Z VRB02KT 9999 BKN023 19/13 Q1020 NOSIG
  • 160830Z VRB01KT 9999 FEW020 BKN027 20/14 Q1020 NOSIG
  • 160800Z 16004KT 110V200 9999 FEW015 BKN026 18/14 Q1020 NOSIG
  • 160730Z 17003KT 130V210 9999 FEW015 SCT020 17/15 Q1020 NOSIG
  • 160700Z 18003KT 9999 FEW013 SCT020 16/14 Q1020 NOSIG
  • 160630Z 15003KT 9999 SCT014 SCT020 15/14 Q1020 NOSIG

TAF TAF LECO
Valid from the 16 at 09:00 until the 17 at 09:00 UTC


160800Z 1609/1709 36010KT 9999 FEW015 BKN020 TX21/1613Z TN13/1705Z
TEMPO 1609/1612 VRB03KT
BECMG 1620/1622 VRB03KT
PROB40
TEMPO 1700/1708 3000 BCFG
PROB30
TEMPO 1703/1708 0350 FG VV001



MET'MAP, your aeronautical weather chart ! - Copyright ORBIFLY December 2007 - Disclaimer

ORBIFLY MET'MAP TEAM :

Programming & Development : Alexandra Zaïnal
Original concept : Baudouin d'Aumeries
Technical & hardware support : Manuel Goepfert
Assistance : Marc-Olivier Méhu




SOURCES & CREDITS :

   NOAA